createdAt,value
2022-11-21T00:00:25.942Z,0.98
2022-11-21T00:01:30.359Z,1.30
2022-11-21T00:02:32.372Z,1.13
2022-11-21T00:03:38.324Z,1.52
2022-11-21T00:04:40.236Z,1.20
2022-11-21T00:05:44.864Z,1.15
2022-11-21T00:06:46.790Z,1.00
2022-11-21T00:07:49.862Z,0.98
2022-11-21T00:08:52.850Z,0.88
2022-11-21T00:09:54.873Z,0.82
2022-11-21T00:11:01.032Z,0.80
2022-11-21T00:12:03.143Z,0.80
2022-11-21T00:13:07.696Z,0.82
2022-11-21T00:14:09.623Z,0.95
2022-11-21T00:15:12.597Z,1.00
2022-11-21T00:16:16.748Z,1.20
2022-11-21T00:17:19.866Z,0.90
2022-11-21T00:18:21.925Z,0.93
2022-11-21T00:19:26.313Z,0.60
2022-11-21T00:20:28.286Z,0.90
2022-11-21T00:21:31.236Z,0.88
2022-11-21T00:22:33.160Z,0.80
2022-11-21T00:23:36.477Z,0.98
2022-11-21T00:24:38.592Z,0.90
2022-11-21T00:25:41.543Z,0.80
2022-11-21T00:26:43.466Z,1.00
2022-11-21T00:27:46.371Z,0.82
2022-11-21T00:28:48.310Z,0.88
2022-11-21T00:29:51.224Z,0.75
2022-11-21T00:30:53.171Z,0.77
2022-11-21T00:31:56.149Z,0.60
2022-11-21T00:32:58.814Z,0.80
2022-11-21T00:34:01.793Z,0.70
2022-11-21T00:35:05.787Z,0.80
2022-11-21T00:36:09.501Z,0.60
2022-11-21T00:37:11.471Z,0.75
2022-11-21T00:38:14.403Z,0.65
2022-11-21T00:39:16.358Z,0.70
2022-11-21T00:40:19.409Z,0.85
2022-11-21T00:41:21.441Z,0.95
2022-11-21T00:42:24.654Z,0.90
2022-11-21T00:43:26.621Z,0.60
2022-11-21T00:44:29.775Z,0.60
2022-11-21T00:45:31.781Z,0.57
2022-11-21T00:46:34.720Z,0.77
2022-11-21T00:47:36.776Z,0.80
2022-11-21T00:48:39.772Z,0.85
2022-11-21T00:49:41.731Z,0.80
2022-11-21T00:50:48.918Z,0.70
2022-11-21T00:51:50.872Z,0.63
2022-11-21T00:52:57.161Z,0.68
2022-11-21T00:53:59.158Z,0.80
2022-11-21T00:55:02.344Z,0.73
2022-11-21T00:56:04.516Z,0.60
2022-11-21T00:57:07.468Z,0.80
2022-11-21T00:58:09.479Z,1.02
2022-11-21T00:59:12.500Z,0.70
2022-11-21T01:00:15.493Z,0.73
2022-11-21T01:01:18.558Z,0.90
2022-11-21T01:02:20.517Z,0.90
2022-11-21T01:03:24.195Z,0.98
2022-11-21T01:04:26.943Z,0.70
2022-11-21T01:05:30.063Z,0.75
2022-11-21T01:06:33.366Z,0.60
2022-11-21T01:07:36.442Z,0.80
2022-11-21T01:08:43.463Z,0.80
2022-11-21T01:09:46.515Z,0.93
2022-11-21T01:10:48.527Z,0.70
2022-11-21T01:11:51.493Z,0.70
2022-11-21T01:12:53.453Z,1.05
2022-11-21T01:13:56.695Z,0.52
2022-11-21T01:14:58.625Z,0.52
2022-11-21T01:16:05.108Z,0.90
2022-11-21T01:17:07.129Z,0.90
2022-11-21T01:18:10.125Z,0.75
2022-11-21T01:19:12.040Z,0.68
2022-11-21T01:20:21.152Z,0.63
2022-11-21T01:21:25.083Z,0.85
2022-11-21T01:22:29.378Z,0.60
2022-11-21T01:23:31.552Z,0.90
2022-11-21T01:24:34.478Z,0.70
2022-11-21T01:25:36.570Z,0.70
2022-11-21T01:26:39.844Z,0.80
2022-11-21T01:27:41.839Z,0.70
2022-11-21T01:28:44.972Z,0.70
2022-11-21T01:29:46.933Z,0.70
2022-11-21T01:30:50.046Z,0.50
2022-11-21T01:31:52.137Z,1.80
2022-11-21T01:32:55.557Z,0.80
2022-11-21T01:34:00.004Z,0.80
2022-11-21T01:35:03.014Z,0.70
2022-11-21T01:36:10.756Z,0.80
2022-11-21T01:37:14.043Z,0.70
2022-11-21T01:38:17.566Z,0.60
2022-11-21T01:39:20.596Z,1.00
2022-11-21T01:40:22.576Z,0.63
2022-11-21T01:41:28.452Z,0.77
2022-11-21T01:42:43.696Z,0.90
2022-11-21T01:43:47.727Z,0.90
2022-11-21T01:44:51.192Z,0.70
2022-11-21T01:45:56.469Z,0.70
2022-11-21T01:46:59.382Z,0.90
2022-11-21T01:48:01.364Z,0.85
2022-11-21T01:49:07.728Z,0.90
2022-11-21T01:50:12.999Z,0.90
2022-11-21T01:51:22.238Z,0.60
2022-11-21T01:52:28.257Z,0.60
2022-11-21T01:53:33.260Z,0.77
2022-11-21T01:54:40.860Z,0.68
2022-11-21T01:55:44.309Z,0.70
2022-11-21T01:56:49.619Z,0.80
2022-11-21T01:57:52.773Z,0.70
2022-11-21T01:58:58.181Z,0.60
2022-11-21T02:00:03.626Z,0.60
2022-11-21T02:01:06.363Z,1.00
2022-11-21T02:02:11.914Z,0.68
2022-11-21T02:03:20.996Z,0.57
2022-11-21T02:04:28.681Z,0.50
2022-11-21T02:05:33.231Z,0.98
2022-11-21T02:06:37.709Z,1.00
2022-11-21T02:07:42.669Z,1.02
2022-11-21T02:08:47.077Z,0.90
2022-11-21T02:09:54.451Z,0.70
2022-11-21T02:11:07.712Z,0.70
2022-11-21T02:12:13.948Z,0.70
2022-11-21T02:13:17.648Z,0.63
2022-11-21T02:14:19.638Z,0.60
2022-11-21T02:15:25.824Z,0.65
2022-11-21T02:16:28.779Z,0.68
2022-11-21T02:17:32.052Z,0.60
2022-11-21T02:18:34.221Z,0.75
2022-11-21T02:19:51.196Z,0.80
2022-11-21T02:20:59.424Z,0.73
2022-11-21T02:22:09.081Z,0.88
2022-11-21T02:23:19.556Z,0.57
2022-11-21T02:24:31.339Z,0.90
2022-11-21T02:25:36.548Z,0.80
2022-11-21T02:26:39.756Z,0.70
2022-11-21T02:27:42.208Z,0.85
2022-11-21T02:28:45.423Z,0.60
2022-11-21T02:29:47.625Z,0.70
2022-11-21T02:30:51.018Z,0.70
2022-11-21T02:31:53.669Z,0.68
2022-11-21T02:32:57.190Z,0.50
2022-11-21T02:33:59.184Z,0.90
2022-11-21T02:35:02.348Z,0.70
2022-11-21T02:36:05.391Z,0.70
2022-11-21T02:37:11.246Z,0.60
2022-11-21T02:38:18.663Z,0.80
2022-11-21T02:39:28.080Z,0.80
2022-11-21T02:40:36.187Z,0.80
2022-11-21T02:41:44.565Z,0.80
2022-11-21T02:42:55.563Z,0.70
2022-11-21T02:44:03.523Z,0.52
2022-11-21T02:45:14.282Z,0.50
2022-11-21T02:46:17.265Z,0.70
2022-11-21T02:47:20.153Z,0.73
2022-11-21T02:48:23.097Z,0.75
2022-11-21T02:49:35.877Z,0.75
2022-11-21T02:50:40.367Z,0.73
2022-11-21T02:51:42.321Z,0.70
2022-11-21T02:52:45.273Z,0.65
2022-11-21T02:53:47.288Z,0.70
2022-11-21T02:54:50.275Z,0.73
2022-11-21T02:55:54.587Z,0.60
2022-11-21T02:56:57.503Z,0.82
2022-11-21T02:58:04.857Z,0.60
2022-11-21T02:59:07.725Z,0.60
2022-11-21T03:00:12.123Z,0.70
2022-11-21T03:01:14.118Z,0.68
2022-11-21T03:02:17.071Z,0.70
2022-11-21T03:03:18.985Z,0.52
2022-11-21T03:04:21.894Z,0.60
2022-11-21T03:05:24.296Z,0.65
2022-11-21T03:06:27.229Z,0.80
2022-11-21T03:07:29.288Z,0.65
2022-11-21T03:08:32.285Z,0.70
2022-11-21T03:09:34.244Z,0.70
2022-11-21T03:10:37.521Z,0.60
2022-11-21T03:11:40.829Z,0.80
2022-11-21T03:12:44.623Z,0.60
2022-11-21T03:13:46.539Z,0.70
2022-11-21T03:14:49.449Z,0.70
2022-11-21T03:15:52.077Z,0.70
2022-11-21T03:16:55.015Z,0.70
2022-11-21T03:17:57.519Z,0.70
2022-11-21T03:19:00.525Z,0.90
2022-11-21T03:20:02.760Z,1.00
2022-11-21T03:21:05.757Z,0.75
2022-11-21T03:22:07.874Z,0.65
2022-11-21T03:23:10.821Z,0.70
2022-11-21T03:24:12.992Z,0.55
2022-11-21T03:25:15.977Z,0.63
2022-11-21T03:26:18.028Z,0.57
2022-11-21T03:27:22.402Z,0.70
2022-11-21T03:28:24.406Z,0.60
2022-11-21T03:29:27.396Z,0.50
2022-11-21T03:30:29.365Z,0.70
2022-11-21T03:31:32.274Z,0.70
2022-11-21T03:32:34.271Z,0.77
2022-11-21T03:33:37.269Z,0.70
2022-11-21T03:34:39.265Z,0.50
2022-11-21T03:35:42.186Z,0.60
2022-11-21T03:36:44.243Z,0.50
2022-11-21T03:37:49.252Z,0.70
2022-11-21T03:38:51.384Z,0.70
2022-11-21T03:39:54.326Z,0.50
2022-11-21T03:40:56.314Z,0.70
2022-11-21T03:41:59.539Z,0.80
2022-11-21T03:43:06.262Z,0.50
2022-11-21T03:44:11.417Z,0.77
2022-11-21T03:45:13.343Z,0.50
2022-11-21T03:46:16.253Z,0.63
2022-11-21T03:47:18.195Z,0.40
2022-11-21T03:48:21.262Z,0.50
2022-11-21T03:49:23.284Z,0.63
2022-11-21T03:50:26.236Z,0.50
2022-11-21T03:51:28.318Z,0.50
2022-11-21T03:52:31.220Z,0.50
2022-11-21T03:53:33.124Z,0.50
2022-11-21T03:54:36.104Z,0.70
2022-11-21T03:55:38.679Z,1.45
2022-11-21T03:56:41.900Z,0.73
2022-11-21T03:57:43.844Z,0.70
2022-11-21T03:58:48.324Z,0.60
2022-11-21T03:59:50.271Z,0.60
2022-11-21T04:00:53.246Z,0.70
2022-11-21T04:01:55.235Z,0.60
2022-11-21T04:02:58.215Z,0.40
2022-11-21T04:04:00.253Z,0.80
2022-11-21T04:05:03.191Z,0.40
2022-11-21T04:06:05.231Z,0.60
2022-11-21T04:07:08.531Z,0.50
2022-11-21T04:08:10.479Z,0.50
2022-11-21T04:09:22.735Z,0.50
2022-11-21T04:10:24.720Z,0.70
2022-11-21T04:11:27.700Z,0.40
2022-11-21T04:12:29.637Z,0.57
2022-11-21T04:13:32.797Z,0.50
2022-11-21T04:14:36.172Z,0.50
2022-11-21T04:15:39.133Z,0.60
2022-11-21T04:16:41.052Z,0.45
2022-11-21T04:17:43.948Z,0.55
2022-11-21T04:18:45.962Z,0.45
2022-11-21T04:19:48.892Z,0.55
2022-11-21T04:20:56.548Z,0.57
2022-11-21T04:21:59.487Z,0.60
2022-11-21T04:23:01.517Z,0.60
2022-11-21T04:24:04.594Z,1.17
2022-11-21T04:25:07.907Z,0.60
2022-11-21T04:26:10.801Z,0.60
2022-11-21T04:27:13.033Z,1.33
2022-11-21T04:28:16.121Z,0.52
2022-11-21T04:29:18.097Z,0.70
2022-11-21T04:30:22.445Z,0.75
2022-11-21T04:31:24.428Z,0.63
2022-11-21T04:32:28.179Z,0.50
2022-11-21T04:33:30.165Z,0.50
2022-11-21T04:34:33.101Z,0.60
2022-11-21T04:35:35.104Z,0.40
2022-11-21T04:36:38.383Z,0.80
2022-11-21T04:37:40.425Z,0.68
2022-11-21T04:38:43.357Z,0.60
2022-11-21T04:39:45.309Z,0.57
2022-11-21T04:40:48.256Z,0.68
2022-11-21T04:41:51.184Z,0.70
2022-11-21T04:42:53.141Z,0.60
2022-11-21T04:43:56.096Z,0.60
2022-11-21T04:44:58.041Z,1.10
2022-11-21T04:46:02.328Z,0.70
2022-11-21T04:47:05.681Z,0.50
2022-11-21T04:48:08.857Z,0.60
2022-11-21T04:49:11.051Z,0.50
2022-11-21T04:50:16.180Z,0.50
2022-11-21T04:51:18.087Z,0.60
2022-11-21T04:52:21.019Z,0.50
2022-11-21T04:53:22.943Z,0.77
2022-11-21T04:54:26.164Z,0.52
2022-11-21T04:55:31.005Z,0.75
2022-11-21T04:56:33.992Z,0.88
2022-11-21T04:57:36.021Z,0.60
2022-11-21T04:58:38.983Z,1.00
2022-11-21T04:59:40.903Z,0.70
2022-11-21T05:00:43.866Z,0.60
2022-11-21T05:01:47.160Z,0.50
2022-11-21T05:02:50.079Z,0.60
2022-11-21T05:03:53.008Z,0.50
2022-11-21T05:04:55.950Z,0.50
2022-11-21T05:05:57.876Z,0.75
2022-11-21T05:07:00.852Z,0.68
2022-11-21T05:08:02.820Z,0.70
2022-11-21T05:09:05.828Z,0.70
2022-11-21T05:10:09.369Z,0.73
2022-11-21T05:11:29.896Z,0.55
2022-11-21T05:12:50.371Z,0.70
2022-11-21T05:13:54.257Z,0.80
2022-11-21T05:14:56.420Z,0.50
2022-11-21T05:15:59.498Z,0.80
2022-11-21T05:17:02.781Z,0.60
2022-11-21T05:18:05.947Z,0.40
2022-11-21T05:19:09.744Z,0.70
2022-11-21T05:20:12.923Z,0.60
2022-11-21T05:21:15.868Z,0.50
2022-11-21T05:22:17.889Z,0.50
2022-11-21T05:23:20.834Z,0.50
2022-11-21T05:24:22.800Z,0.60
2022-11-21T05:25:25.714Z,0.50
2022-11-21T05:26:27.647Z,1.10
2022-11-21T05:27:30.568Z,0.70
2022-11-21T05:28:32.543Z,0.60
2022-11-21T05:29:35.991Z,0.70
2022-11-21T05:30:38.039Z,0.63
2022-11-21T05:31:40.989Z,0.60
2022-11-21T05:32:45.152Z,0.60
2022-11-21T05:33:48.068Z,0.45
2022-11-21T05:34:50.034Z,0.50
2022-11-21T05:35:52.976Z,0.80
2022-11-21T05:36:57.185Z,0.50
2022-11-21T05:38:00.647Z,0.70
2022-11-21T05:39:02.604Z,0.40
2022-11-21T05:40:06.716Z,0.55
2022-11-21T05:41:08.659Z,0.50
2022-11-21T05:42:11.605Z,0.65
2022-11-21T05:43:32.049Z,0.70
2022-11-21T05:44:34.072Z,0.60
2022-11-21T05:45:37.031Z,0.50
2022-11-21T05:46:39.981Z,0.60
2022-11-21T05:47:42.304Z,0.63
2022-11-21T05:48:47.093Z,0.50
2022-11-21T05:49:49.032Z,0.50
2022-11-21T05:50:51.996Z,0.50
2022-11-21T05:51:54.990Z,0.50
2022-11-21T05:53:01.604Z,0.60
2022-11-21T05:54:04.987Z,0.70
2022-11-21T05:55:07.568Z,0.50
2022-11-21T05:56:11.915Z,0.40
2022-11-21T05:57:13.884Z,0.60
2022-11-21T05:58:16.780Z,0.50
2022-11-21T05:59:18.707Z,0.55
2022-11-21T06:00:21.952Z,0.70
2022-11-21T06:01:39.096Z,0.70
2022-11-21T06:02:59.493Z,0.50
2022-11-21T06:04:04.241Z,0.40
2022-11-21T06:05:06.959Z,0.50
2022-11-21T06:06:11.845Z,0.45
2022-11-21T06:07:13.780Z,0.40
2022-11-21T06:08:16.778Z,0.50
2022-11-21T06:09:19.743Z,0.40
2022-11-21T06:10:21.678Z,0.40
2022-11-21T06:11:24.690Z,0.43
2022-11-21T06:12:26.685Z,0.93
2022-11-21T06:13:30.037Z,0.40
2022-11-21T06:14:31.944Z,0.32
2022-11-21T06:15:34.888Z,0.40
2022-11-21T06:16:37.865Z,0.50
2022-11-21T06:17:39.817Z,0.30
2022-11-21T06:18:44.813Z,0.40
2022-11-21T06:19:48.125Z,0.40
2022-11-21T06:20:51.416Z,0.30
2022-11-21T06:21:53.381Z,0.50
2022-11-21T06:22:56.288Z,0.40
2022-11-21T06:23:59.067Z,0.40
2022-11-21T06:25:01.987Z,0.50
2022-11-21T06:26:07.009Z,0.40
2022-11-21T06:27:09.172Z,1.00
2022-11-21T06:28:12.548Z,0.90
2022-11-21T06:29:14.537Z,0.50
2022-11-21T06:30:22.021Z,0.60
2022-11-21T06:31:27.423Z,1.90
2022-11-21T06:32:29.737Z,2.03
2022-11-21T06:33:32.937Z,0.70
2022-11-21T06:34:34.896Z,1.88
2022-11-21T06:35:40.719Z,1.15
2022-11-21T06:36:44.694Z,1.75
2022-11-21T06:37:53.247Z,3.00
2022-11-21T06:38:57.553Z,2.33
2022-11-21T06:39:59.912Z,1.15
2022-11-21T06:41:05.700Z,1.80
2022-11-21T06:42:07.635Z,0.70
2022-11-21T06:43:10.582Z,0.70
2022-11-21T06:44:12.685Z,0.70
2022-11-21T06:45:15.807Z,0.40
2022-11-21T06:46:19.164Z,0.50
2022-11-21T06:47:21.124Z,0.40
2022-11-21T06:48:24.180Z,0.75
2022-11-21T06:49:26.088Z,0.43
2022-11-21T06:50:31.049Z,0.47
2022-11-21T06:51:34.399Z,0.50
2022-11-21T06:52:37.340Z,0.50
2022-11-21T06:53:40.306Z,0.40
2022-11-21T06:54:42.277Z,0.50
2022-11-21T06:55:45.225Z,0.40
2022-11-21T06:56:47.188Z,0.60
2022-11-21T06:57:50.113Z,0.40
2022-11-21T06:58:52.125Z,0.35
2022-11-21T06:59:55.064Z,0.38
2022-11-21T07:00:57.608Z,0.40
2022-11-21T07:02:01.217Z,0.38
2022-11-21T07:03:04.244Z,0.40
2022-11-21T07:04:07.155Z,0.70
2022-11-21T07:05:09.657Z,0.50
2022-11-21T07:06:12.680Z,0.40
2022-11-21T07:07:16.115Z,0.55
2022-11-21T07:08:19.101Z,0.60
2022-11-21T07:09:36.395Z,0.50
2022-11-21T07:10:42.534Z,0.65
2022-11-21T07:11:55.219Z,0.60
2022-11-21T07:13:16.183Z,0.50
2022-11-21T07:14:18.170Z,0.60
2022-11-21T07:15:21.482Z,0.57
2022-11-21T07:16:26.370Z,0.52
2022-11-21T07:17:28.530Z,0.60
2022-11-21T07:18:31.767Z,0.57
2022-11-21T07:19:36.311Z,0.47
2022-11-21T07:20:42.912Z,0.60
2022-11-21T07:21:46.055Z,0.50
2022-11-21T07:22:53.316Z,0.50
2022-11-21T07:23:56.245Z,0.70
2022-11-21T07:24:58.190Z,0.60
2022-11-21T07:26:01.674Z,0.50
2022-11-21T07:27:04.939Z,0.50
2022-11-21T07:28:08.031Z,0.80
2022-11-21T07:29:11.012Z,0.68
2022-11-21T07:30:14.252Z,0.50
2022-11-21T07:31:17.196Z,0.50
2022-11-21T07:32:19.200Z,0.45
2022-11-21T07:33:22.093Z,0.50
2022-11-21T07:34:24.065Z,0.50
2022-11-21T07:35:27.859Z,0.75
2022-11-21T07:36:32.738Z,0.60
2022-11-21T07:37:39.460Z,0.65
2022-11-21T07:38:43.769Z,0.50
2022-11-21T07:39:45.750Z,0.47
2022-11-21T07:40:48.724Z,0.70
2022-11-21T07:41:50.659Z,0.40
2022-11-21T07:42:53.608Z,0.40
2022-11-21T07:43:56.665Z,0.50
2022-11-21T07:45:00.114Z,0.50
2022-11-21T07:46:02.061Z,0.55
2022-11-21T07:47:05.016Z,0.60
2022-11-21T07:48:09.254Z,0.50
2022-11-21T07:49:11.155Z,0.70
2022-11-21T07:50:14.484Z,0.60
2022-11-21T07:51:16.563Z,0.40
2022-11-21T07:52:19.571Z,0.43
2022-11-21T07:53:21.626Z,0.40
2022-11-21T07:54:25.919Z,0.52
2022-11-21T07:55:29.633Z,0.50
2022-11-21T07:56:32.564Z,0.50
2022-11-21T07:57:34.542Z,0.70
2022-11-21T07:58:37.702Z,0.47
2022-11-21T07:59:39.793Z,0.40
2022-11-21T08:00:43.748Z,0.55
2022-11-21T08:01:46.035Z,0.45
2022-11-21T08:02:49.065Z,0.52
2022-11-21T08:03:50.985Z,0.52
2022-11-21T08:04:54.422Z,0.50
2022-11-21T08:05:57.371Z,0.40
2022-11-21T08:07:00.435Z,0.60
2022-11-21T08:08:02.387Z,0.80
2022-11-21T08:09:05.350Z,0.47
2022-11-21T08:10:09.126Z,0.77
2022-11-21T08:11:12.126Z,0.63
2022-11-21T08:12:14.529Z,0.40
2022-11-21T08:13:17.435Z,0.52
2022-11-21T08:14:19.528Z,0.75
2022-11-21T08:15:22.504Z,0.55
2022-11-21T08:16:28.002Z,0.60
2022-11-21T08:17:30.967Z,0.55
2022-11-21T08:18:33.021Z,0.60
2022-11-21T08:19:36.154Z,0.68
2022-11-21T08:20:39.290Z,0.60
2022-11-21T08:21:41.254Z,0.50
2022-11-21T08:22:44.275Z,0.60
2022-11-21T08:23:46.198Z,0.85
2022-11-21T08:24:49.120Z,0.40
2022-11-21T08:25:52.443Z,0.55
2022-11-21T08:26:55.516Z,0.60
2022-11-21T08:27:57.572Z,0.50
2022-11-21T08:29:01.315Z,0.40
2022-11-21T08:30:03.965Z,0.40
2022-11-21T08:31:07.207Z,0.55
2022-11-21T08:32:09.180Z,0.50
2022-11-21T08:33:12.085Z,0.60
2022-11-21T08:34:15.051Z,0.60
2022-11-21T08:35:18.251Z,0.50
2022-11-21T08:36:21.169Z,0.60
2022-11-21T08:37:23.117Z,0.60
2022-11-21T08:38:26.298Z,0.50
2022-11-21T08:39:30.955Z,0.40
2022-11-21T08:40:34.244Z,0.40
2022-11-21T08:41:55.832Z,0.55
2022-11-21T08:42:59.174Z,0.70
2022-11-21T08:44:01.163Z,0.60
2022-11-21T08:45:04.235Z,0.52
2022-11-21T08:46:06.218Z,0.45
2022-11-21T08:47:09.158Z,0.60
2022-11-21T08:48:11.553Z,0.60
2022-11-21T08:49:14.550Z,0.45
2022-11-21T08:50:16.601Z,0.68
2022-11-21T08:51:19.608Z,0.70
2022-11-21T08:52:22.509Z,0.40
2022-11-21T08:53:24.553Z,0.50
2022-11-21T08:54:27.779Z,0.50
2022-11-21T08:55:30.342Z,0.60
2022-11-21T08:56:33.461Z,0.52
2022-11-21T08:57:40.475Z,0.60
2022-11-21T08:58:42.547Z,0.70
2022-11-21T08:59:45.492Z,0.40
2022-11-21T09:00:47.525Z,0.50
2022-11-21T09:01:50.560Z,0.55
2022-11-21T09:02:53.563Z,0.50
2022-11-21T09:03:56.941Z,0.30
2022-11-21T09:04:59.868Z,0.63
2022-11-21T09:06:01.985Z,0.40
2022-11-21T09:07:05.186Z,0.55
2022-11-21T09:08:07.153Z,0.52
2022-11-21T09:09:10.310Z,0.43
2022-11-21T09:10:13.327Z,0.40
2022-11-21T09:11:16.292Z,0.40
2022-11-21T09:12:19.327Z,0.60
2022-11-21T09:13:23.773Z,0.40
2022-11-21T09:14:44.370Z,0.50
2022-11-21T09:16:04.910Z,0.52
2022-11-21T09:17:28.512Z,0.45
2022-11-21T09:18:31.769Z,0.40
2022-11-21T09:19:34.089Z,0.50
2022-11-21T09:20:41.148Z,0.40
2022-11-21T09:21:44.232Z,0.50
2022-11-21T09:22:49.138Z,0.50
2022-11-21T09:23:52.118Z,0.40
2022-11-21T09:24:55.162Z,0.50
2022-11-21T09:25:57.113Z,0.50
2022-11-21T09:27:01.079Z,0.60
2022-11-21T09:28:04.758Z,0.40
2022-11-21T09:29:11.156Z,0.40
2022-11-21T09:30:14.837Z,0.60
2022-11-21T09:31:18.033Z,0.30
2022-11-21T09:32:20.923Z,0.50
2022-11-21T09:33:24.135Z,0.40
2022-11-21T09:34:26.543Z,0.50
2022-11-21T09:35:33.444Z,0.60
2022-11-21T09:36:36.663Z,0.50
2022-11-21T09:37:40.318Z,0.63
2022-11-21T09:38:45.747Z,0.70
2022-11-21T09:39:49.075Z,0.50
2022-11-21T09:40:51.148Z,0.47
2022-11-21T09:42:06.661Z,0.50
2022-11-21T09:43:29.920Z,0.50
2022-11-21T09:44:55.623Z,0.50
2022-11-21T09:46:04.013Z,0.60
2022-11-21T09:47:20.091Z,0.30
2022-11-21T09:48:29.155Z,0.40
2022-11-21T09:49:37.468Z,0.57
2022-11-21T09:50:43.641Z,0.40
2022-11-21T09:51:46.932Z,0.50
2022-11-21T09:52:52.544Z,0.40
2022-11-21T09:53:58.753Z,0.50
2022-11-21T09:55:05.937Z,0.50
2022-11-21T09:56:13.438Z,0.40
2022-11-21T09:57:17.517Z,0.52
2022-11-21T09:58:26.377Z,0.80
2022-11-21T09:59:35.325Z,0.40
2022-11-21T10:00:39.700Z,0.60
2022-11-21T10:01:41.840Z,0.50
2022-11-21T10:02:44.937Z,0.43
2022-11-21T10:03:49.890Z,0.50
2022-11-21T10:05:00.701Z,0.50
2022-11-21T10:06:13.289Z,0.50
2022-11-21T10:07:21.189Z,1.05
2022-11-21T10:08:31.719Z,0.90
2022-11-21T10:09:52.997Z,0.60
2022-11-21T10:10:58.345Z,0.40
2022-11-21T10:12:25.904Z,0.50
2022-11-21T10:13:44.011Z,2.72
2022-11-21T10:14:57.778Z,3.75
2022-11-21T10:16:09.688Z,1.20
2022-11-21T10:17:21.791Z,1.60
2022-11-21T10:18:53.704Z,1.05
2022-11-21T10:20:13.760Z,0.80
2022-11-21T10:21:32.245Z,0.50
2022-11-21T10:22:54.613Z,0.40
2022-11-21T10:24:16.524Z,0.50
2022-11-21T10:25:27.139Z,0.80
2022-11-21T10:26:42.468Z,0.50
2022-11-21T10:27:50.046Z,0.50
2022-11-21T10:28:58.452Z,0.55
2022-11-21T10:30:04.643Z,0.50
2022-11-21T10:31:12.057Z,0.70
2022-11-21T10:32:23.080Z,1.77
2022-11-21T10:33:32.352Z,1.15
2022-11-21T10:34:38.882Z,0.50
2022-11-21T10:35:45.236Z,0.70
2022-11-21T10:36:53.060Z,0.60
2022-11-21T10:38:00.731Z,0.70
2022-11-21T10:39:10.344Z,0.50
2022-11-21T10:40:27.198Z,0.57
2022-11-21T10:41:41.210Z,0.40
2022-11-21T10:42:52.887Z,0.93
2022-11-21T10:44:21.838Z,0.60
2022-11-21T10:45:24.204Z,0.50
2022-11-21T10:46:28.484Z,0.60
2022-11-21T10:47:33.819Z,0.50
2022-11-21T10:48:37.010Z,0.75
2022-11-21T10:49:39.591Z,0.43
2022-11-21T10:50:58.226Z,0.50
2022-11-21T10:52:07.143Z,0.50
2022-11-21T10:53:34.941Z,0.90
2022-11-21T10:55:05.917Z,0.60
2022-11-21T10:56:12.496Z,0.77
2022-11-21T10:57:19.749Z,0.65
2022-11-21T10:58:36.816Z,0.65
2022-11-21T10:59:40.061Z,0.65
2022-11-21T11:00:58.384Z,0.50
2022-11-21T11:02:04.522Z,0.68
2022-11-21T11:03:16.932Z,0.70
2022-11-21T11:04:45.869Z,0.80
2022-11-21T11:05:56.686Z,0.70
2022-11-21T11:07:14.622Z,0.70
2022-11-21T11:08:17.636Z,0.50
2022-11-21T11:09:29.293Z,0.82
2022-11-21T11:10:32.595Z,0.70
2022-11-21T11:11:35.636Z,0.60
2022-11-21T11:12:55.903Z,1.60
2022-11-21T11:14:01.515Z,1.00
2022-11-21T11:15:04.861Z,0.90
2022-11-21T11:16:16.336Z,1.17
2022-11-21T11:17:27.992Z,0.85
2022-11-21T11:18:31.212Z,1.00
2022-11-21T11:19:39.982Z,1.05
2022-11-21T11:20:44.063Z,1.30
2022-11-21T11:21:47.685Z,1.20
2022-11-21T11:22:49.790Z,1.23
2022-11-21T11:23:54.523Z,0.90
2022-11-21T11:25:00.431Z,0.45
2022-11-21T11:26:03.768Z,2.50
2022-11-21T11:27:06.720Z,1.08
2022-11-21T11:28:09.327Z,0.60
2022-11-21T11:29:16.178Z,0.70
2022-11-21T11:30:19.729Z,0.70
2022-11-21T11:31:23.004Z,0.60
2022-11-21T11:32:26.385Z,1.20
2022-11-21T11:33:37.329Z,0.70
2022-11-21T11:34:43.118Z,1.00
2022-11-21T11:35:45.132Z,0.70
2022-11-21T11:36:56.124Z,0.82
2022-11-21T11:38:02.005Z,0.80
2022-11-21T11:39:15.280Z,0.60
2022-11-21T11:40:24.324Z,1.48
2022-11-21T11:42:19.511Z,1.75
2022-11-21T11:43:52.885Z,0.80
2022-11-21T11:45:30.319Z,0.90
2022-11-21T11:46:59.297Z,0.88
2022-11-21T11:48:09.197Z,1.00
2022-11-21T11:49:33.688Z,1.15
2022-11-21T11:50:41.068Z,1.00
2022-11-21T11:51:49.626Z,0.57
2022-11-21T11:52:57.706Z,1.15
2022-11-21T11:54:07.765Z,2.03
2022-11-21T11:55:22.970Z,2.10
2022-11-21T11:56:29.147Z,1.30
2022-11-21T11:57:32.210Z,1.00
2022-11-21T11:58:41.623Z,0.77
2022-11-21T11:59:50.444Z,1.77
2022-11-21T12:01:00.625Z,0.98
2022-11-21T12:02:11.973Z,1.77
2022-11-21T12:03:20.537Z,3.15
2022-11-21T12:04:25.621Z,1.40
2022-11-21T12:05:30.537Z,0.70
2022-11-21T12:07:31.464Z,0.60
2022-11-21T12:09:43.945Z,3.90
2022-11-21T12:11:09.508Z,1.80
2022-11-21T12:12:24.511Z,1.40
2022-11-21T12:13:28.287Z,1.23
2022-11-21T12:15:18.580Z,1.45
2022-11-21T12:16:23.107Z,3.13
2022-11-21T12:17:32.569Z,1.95
2022-11-21T12:18:48.192Z,1.35
2022-11-21T12:19:53.410Z,0.85
2022-11-21T12:21:02.213Z,1.20
2022-11-21T12:22:06.600Z,0.90
2022-11-21T12:23:12.361Z,1.70
2022-11-21T12:24:16.321Z,2.42
2022-11-21T12:25:22.815Z,3.25
2022-11-21T12:26:47.260Z,1.88
2022-11-21T12:27:54.582Z,1.42
2022-11-21T12:29:21.539Z,2.20
2022-11-21T12:30:53.137Z,3.10
2022-11-21T12:32:17.940Z,2.30
2022-11-21T12:33:23.056Z,2.50
2022-11-21T12:34:43.461Z,1.27
2022-11-21T12:36:18.908Z,1.77
2022-11-21T12:37:33.227Z,1.80
2022-11-21T12:39:11.653Z,1.65
2022-11-21T12:40:31.108Z,1.30
2022-11-21T12:41:55.386Z,0.80
2022-11-21T12:43:10.040Z,1.20
2022-11-21T12:44:26.403Z,0.80
2022-11-21T12:45:32.619Z,0.70
2022-11-21T12:46:47.883Z,0.95
2022-11-21T12:48:38.662Z,1.17
2022-11-21T12:50:09.489Z,1.20
2022-11-21T12:51:53.220Z,0.70
2022-11-21T12:53:19.859Z,1.05
2022-11-21T12:54:46.993Z,0.70
2022-11-21T12:55:56.362Z,0.77
2022-11-21T12:57:05.112Z,0.80
2022-11-21T12:58:17.332Z,0.80
2022-11-21T12:59:21.401Z,1.20
2022-11-21T13:00:32.778Z,0.70
2022-11-21T13:01:46.076Z,0.88
2022-11-21T13:03:37.716Z,0.60
2022-11-21T13:04:47.091Z,0.60
2022-11-21T13:05:51.998Z,0.60
2022-11-21T13:06:57.793Z,0.80
2022-11-21T13:08:03.540Z,0.90
2022-11-21T13:09:10.875Z,0.65
2022-11-21T13:10:15.892Z,0.73
2022-11-21T13:12:01.976Z,0.40
2022-11-21T13:13:15.596Z,0.50
2022-11-21T13:14:26.280Z,0.68
2022-11-21T13:15:38.379Z,0.68
2022-11-21T13:16:48.213Z,0.80
2022-11-21T13:17:57.015Z,0.65
2022-11-21T13:19:00.319Z,0.75
2022-11-21T13:20:14.729Z,0.60
2022-11-21T13:21:41.885Z,0.40
2022-11-21T13:22:53.875Z,0.70
2022-11-21T13:23:56.817Z,0.73
2022-11-21T13:25:01.568Z,1.35
2022-11-21T13:26:43.028Z,0.60
2022-11-21T13:27:46.100Z,0.80
2022-11-21T13:28:49.663Z,0.50
2022-11-21T13:30:21.805Z,0.70
2022-11-21T13:31:32.538Z,0.85
2022-11-21T13:32:38.398Z,0.57
2022-11-21T13:33:52.912Z,0.47
2022-11-21T13:34:55.861Z,0.85
2022-11-21T13:35:59.268Z,0.80
2022-11-21T13:37:03.623Z,0.73
2022-11-21T13:38:08.211Z,0.75
2022-11-21T13:39:36.553Z,0.90
2022-11-21T13:40:39.959Z,0.80
2022-11-21T13:42:31.609Z,1.00
2022-11-21T13:43:35.694Z,0.40
2022-11-21T13:44:41.249Z,0.50
2022-11-21T13:45:47.155Z,0.63
2022-11-21T13:46:59.060Z,0.70
2022-11-21T13:48:35.399Z,0.85
2022-11-21T13:49:45.539Z,1.17
2022-11-21T13:50:59.923Z,0.60
2022-11-21T13:52:12.428Z,0.70
2022-11-21T13:53:41.312Z,0.90
2022-11-21T13:55:09.281Z,1.00
2022-11-21T13:56:24.696Z,0.70
2022-11-21T13:57:49.756Z,0.77
2022-11-21T13:59:01.745Z,0.82
2022-11-21T14:00:24.870Z,0.47
2022-11-21T14:01:55.722Z,1.02
2022-11-21T14:03:36.636Z,0.70
2022-11-21T14:05:12.948Z,1.30
2022-11-21T14:06:43.799Z,0.95
2022-11-21T14:07:47.888Z,0.85
2022-11-21T14:09:15.425Z,1.00
2022-11-21T14:10:31.097Z,1.02
2022-11-21T14:11:41.263Z,1.10
2022-11-21T14:12:49.572Z,1.00
2022-11-21T14:13:52.528Z,0.85
2022-11-21T14:15:15.079Z,0.80
2022-11-21T14:16:28.137Z,0.80
2022-11-21T14:17:40.675Z,1.25
2022-11-21T14:18:47.010Z,0.93
2022-11-21T14:19:51.757Z,1.38
2022-11-21T14:20:57.524Z,1.13
2022-11-21T14:22:01.034Z,1.15
2022-11-21T14:23:07.429Z,1.98
2022-11-21T14:24:16.079Z,1.70
2022-11-21T14:25:23.184Z,1.58
2022-11-21T14:26:26.666Z,1.90
2022-11-21T14:27:31.048Z,1.75
2022-11-21T14:28:36.019Z,1.77
2022-11-21T14:29:40.020Z,1.70
2022-11-21T14:30:44.979Z,1.48
2022-11-21T14:31:47.696Z,1.60
2022-11-21T14:32:54.375Z,1.50
2022-11-21T14:33:58.403Z,1.17
2022-11-21T14:35:12.530Z,0.95
2022-11-21T14:36:17.512Z,1.55
2022-11-21T14:37:19.544Z,1.20
2022-11-21T14:38:25.220Z,1.30
2022-11-21T14:39:43.754Z,1.48
2022-11-21T14:40:46.537Z,1.50
2022-11-21T14:41:52.197Z,1.55
2022-11-21T14:42:54.324Z,1.13
2022-11-21T14:44:21.155Z,1.63
2022-11-21T14:45:25.297Z,1.23
2022-11-21T14:46:30.857Z,1.50
2022-11-21T14:47:33.860Z,1.50
2022-11-21T14:48:35.829Z,1.50